Time;durP1;ratioP1;P1;durP2;ratioP2;P2;SDS_P1;SDS_P2;PMS_P1;PMS_P2;Temp;Humidity;BMP_temperature;BMP_pressure;BME280_temperature;BME280_humidity;BME280_pressure;Samples;Min_cycle;Max_cycle;Signal;HPM_P1;HPM_P2
2021/11/17 02:28:54;;;;;;;54.58;12.75;;;9.00;90.20;;;;;;6209560;28;20503;-80
2021/11/17 02:32:16;;;;;;;40.63;13.35;;;9.00;90.20;;;;;;6208912;28;20054;-80
2021/11/17 02:35:40;;;;;;;51.13;13.80;;;9.00;90.30;;;;;;6215542;28;20057;-81
2021/11/17 02:38:59;;;;;;;42.47;12.05;;;9.00;90.30;;;;;;6227606;28;20042;-81
2021/11/17 02:42:17;;;;;;;41.90;12.77;;;9.00;90.30;;;;;;6235663;28;20223;-81
2021/11/17 02:45:38;;;;;;;35.25;12.65;;;9.00;90.30;;;;;;6236782;28;20052;-81
2021/11/17 02:49:07;;;;;;;35.92;11.70;;;8.90;90.40;;;;;;6234077;28;20120;-80
2021/11/17 02:52:31;;;;;;;45.85;12.52;;;9.00;90.40;;;;;;6232212;28;20495;-81
2021/11/17 02:55:46;;;;;;;34.83;11.98;;;9.00;90.40;;;;;;6229522;28;20061;-80
2021/11/17 02:59:12;;;;;;;41.30;12.98;;;9.00;90.30;;;;;;6184698;28;20536;-80
2021/11/17 03:02:33;;;;;;;38.20;11.32;;;9.10;90.20;;;;;;6185356;28;20050;-80
2021/11/17 03:05:57;;;;;;;37.63;12.32;;;9.00;90.20;;;;;;6183927;28;20050;-81
2021/11/17 03:09:22;;;;;;;37.85;10.95;;;9.00;90.30;;;;;;6205385;28;20415;-81
2021/11/17 03:12:47;;;;;;;32.13;12.02;;;9.00;90.30;;;;;;6210235;28;20053;-81
2021/11/17 03:16:05;;;;;;;30.63;10.93;;;9.00;90.30;;;;;;6208568;28;20543;-80
2021/11/17 03:19:26;;;;;;;35.10;11.10;;;9.00;90.20;;;;;;6211395;28;20093;-80
2021/11/17 03:22:49;;;;;;;33.03;10.45;;;9.00;90.20;;;;;;6211679;28;20122;-81
2021/11/17 03:26:04;;;;;;;30.58;11.35;;;9.00;90.10;;;;;;6210481;28;20053;-81
2021/11/17 03:29:35;;;;;;;27.20;8.50;;;9.00;90.40;;;;;;6211199;28;20046;-81
2021/11/17 03:32:59;;;;;;;28.15;9.38;;;9.00;90.20;;;;;;6211182;28;20046;-80
2021/11/17 03:36:15;;;;;;;38.88;11.65;;;9.00;90.10;;;;;;6211501;28;20137;-80
2021/11/17 03:39:48;;;;;;;30.25;9.00;;;9.00;90.10;;;;;;6210827;28;20057;-80
2021/11/17 03:43:05;;;;;;;34.15;10.07;;;8.90;90.10;;;;;;6203813;28;20054;-80
2021/11/17 03:46:33;;;;;;;32.95;9.73;;;9.00;90.10;;;;;;6210294;28;20135;-80
2021/11/17 03:49:49;;;;;;;32.53;9.40;;;9.00;90.00;;;;;;6208187;28;20406;-79
2021/11/17 03:53:18;;;;;;;33.08;9.48;;;9.00;90.10;;;;;;6210438;28;20069;-80
2021/11/17 03:56:41;;;;;;;27.60;9.13;;;9.00;90.00;;;;;;6208814;28;20051;-80
2021/11/17 03:59:59;;;;;;;23.90;9.15;;;8.90;89.80;;;;;;6197148;28;20047;-80
2021/11/17 04:03:16;;;;;;;26.08;9.07;;;8.90;89.90;;;;;;6209659;28;20098;-81
2021/11/17 04:06:32;;;;;;;29.55;8.45;;;8.90;90.10;;;;;;6213636;28;20056;-81
2021/11/17 04:09:47;;;;;;;26.67;8.13;;;8.90;90.10;;;;;;6210875;28;20069;-80
2021/11/17 04:13:02;;;;;;;30.48;9.38;;;8.90;90.00;;;;;;6206650;28;20589;-78
2021/11/17 04:16:20;;;;;;;29.05;8.20;;;9.00;90.00;;;;;;6201238;28;20551;-79
2021/11/17 04:19:36;;;;;;;28.27;8.25;;;9.00;89.60;;;;;;6200212;28;20050;-80
2021/11/17 04:23:02;;;;;;;25.42;9.60;;;9.00;89.60;;;;;;6201972;28;20134;-79
2021/11/17 04:26:35;;;;;;;31.20;7.55;;;8.90;89.80;;;;;;6202831;28;20639;-80
2021/11/17 04:30:05;;;;;;;27.40;7.65;;;8.90;89.80;;;;;;6196311;28;20054;-80
2021/11/17 04:33:44;;;;;;;19.73;7.82;;;8.90;89.80;;;;;;6200231;28;20180;-79
2021/11/17 04:37:15;;;;;;;27.95;8.82;;;8.90;89.80;;;;;;6208170;28;20451;-80
2021/11/17 04:40:39;;;;;;;31.17;8.55;;;8.90;89.60;;;;;;6215624;28;20053;-79
2021/11/17 04:43:52;;;;;;;22.65;7.47;;;8.90;89.60;;;;;;6225131;28;20781;-79
2021/11/17 04:47:08;;;;;;;23.52;8.55;;;8.80;89.80;;;;;;6224387;28;20107;-80
2021/11/17 04:50:44;;;;;;;22.63;7.30;;;8.80;89.80;;;;;;6225011;28;20056;-80
2021/11/17 04:54:00;;;;;;;28.92;8.30;;;8.80;89.70;;;;;;6212692;28;20050;-79
2021/11/17 04:57:17;;;;;;;23.63;7.50;;;8.80;89.80;;;;;;6214224;28;20133;-78
2021/11/17 05:00:44;;;;;;;23.50;8.90;;;8.80;89.70;;;;;;6199266;28;20050;-80
2021/11/17 05:03:58;;;;;;;19.85;8.30;;;8.90;89.80;;;;;;6200571;28;20053;-79
2021/11/17 05:07:13;;;;;;;26.02;9.48;;;8.90;89.70;;;;;;6208572;28;20053;-80
2021/11/17 05:10:29;;;;;;;26.05;8.65;;;8.90;89.60;;;;;;6219630;28;20191;-80
2021/11/17 05:13:41;;;;;;;19.55;7.60;;;8.90;89.60;;;;;;6227902;28;20741;-78
2021/11/17 05:16:57;;;;;;;35.22;8.95;;;8.90;89.60;;;;;;6203682;28;20528;-79
2021/11/17 05:20:10;;;;;;;24.58;8.32;;;8.90;89.60;;;;;;6204944;28;20436;-80
2021/11/17 05:23:25;;;;;;;24.70;7.50;;;8.90;89.90;;;;;;6205301;28;20042;-81
2021/11/17 05:26:41;;;;;;;21.30;7.78;;;8.90;89.90;;;;;;6209734;28;20050;-79
2021/11/17 05:30:01;;;;;;;21.73;8.45;;;8.90;89.90;;;;;;6211081;28;20466;-79
2021/11/17 05:33:16;;;;;;;26.40;8.55;;;8.90;89.80;;;;;;6211414;28;20097;-81
2021/11/17 05:36:29;;;;;;;25.65;8.45;;;8.90;89.80;;;;;;6215539;28;20121;-80
2021/11/17 05:39:46;;;;;;;26.13;8.77;;;8.90;89.90;;;;;;6228388;28;20073;-80
2021/11/17 05:43:01;;;;;;;24.35;8.40;;;8.90;90.00;;;;;;6230920;28;20132;-79
2021/11/17 05:46:18;;;;;;;29.45;7.43;;;8.80;90.10;;;;;;6229362;28;20056;-80
2021/11/17 05:49:31;;;;;;;24.73;8.80;;;8.80;90.10;;;;;;6230168;28;20071;-80
2021/11/17 05:52:49;;;;;;;22.10;8.50;;;8.70;90.10;;;;;;6230644;28;20048;-80
2021/11/17 05:56:03;;;;;;;21.85;8.90;;;8.60;90.30;;;;;;6228799;28;20069;-79
2021/11/17 05:59:20;;;;;;;22.95;8.10;;;8.60;90.70;;;;;;6214589;28;20057;-80
2021/11/17 06:02:40;;;;;;;21.10;8.05;;;8.60;90.50;;;;;;6204307;28;20053;-79
2021/11/17 06:05:42;;;;;;;31.13;8.63;;;8.60;90.50;;;;;;6216510;28;20390;-80
2021/11/17 06:08:43;;;;;;;25.40;6.80;;;8.70;90.50;;;;;;6226972;28;20046;-81
2021/11/17 06:11:49;;;;;;;23.88;7.35;;;8.60;90.40;;;;;;6235569;28;20046;-79
2021/11/17 06:14:52;;;;;;;25.88;6.82;;;8.70;90.50;;;;;;6235413;28;20108;-80
2021/11/17 06:17:56;;;;;;;16.08;7.10;;;8.60;90.40;;;;;;6235599;28;20133;-79
2021/11/17 06:20:58;;;;;;;14.25;6.07;;;8.60;90.50;;;;;;6230762;28;20060;-80
2021/11/17 06:24:04;;;;;;;20.52;6.53;;;8.60;90.50;;;;;;6234710;28;20133;-79
2021/11/17 06:27:12;;;;;;;22.15;7.35;;;8.60;90.40;;;;;;6223272;28;20051;-79
2021/11/17 06:30:16;;;;;;;24.42;9.27;;;8.60;90.40;;;;;;6188092;28;20078;-80
2021/11/17 06:33:18;;;;;;;21.75;6.97;;;8.60;90.40;;;;;;6191041;28;20087;-79
2021/11/17 06:36:20;;;;;;;19.70;6.88;;;8.70;90.40;;;;;;6204559;28;20042;-80
2021/11/17 06:39:23;;;;;;;25.10;7.75;;;8.60;90.40;;;;;;6222086;28;20046;-79
2021/11/17 06:42:31;;;;;;;21.17;7.22;;;8.60;90.40;;;;;;6229168;28;20037;-80
2021/11/17 06:45:36;;;;;;;;;;;8.60;90.30;;;;;;6230325;28;20046;-78
2021/11/17 06:48:38;;;;;;;20.70;8.35;;;8.60;90.40;;;;;;6229149;28;20299;-80
2021/11/17 06:51:40;;;;;;;20.42;5.95;;;8.50;90.20;;;;;;6230908;28;20459;-80
2021/11/17 06:54:42;;;;;;;21.17;6.75;;;8.60;90.30;;;;;;6229416;28;20127;-81
2021/11/17 06:57:45;;;;;;;19.50;6.00;;;8.50;90.30;;;;;;6230621;28;20105;-80
2021/11/17 07:00:50;;;;;;;22.42;7.28;;;8.60;90.40;;;;;;6199599;28;20445;-80
2021/11/17 07:03:52;;;;;;;16.95;6.25;;;8.70;90.40;;;;;;6205878;28;20046;-80
2021/11/17 07:06:54;;;;;;;17.10;5.72;;;8.70;90.30;;;;;;6215689;28;20054;-80
2021/11/17 07:09:55;;;;;;;19.13;6.28;;;8.70;90.20;;;;;;6211593;28;20054;-80
2021/11/17 07:12:59;;;;;;;17.83;5.68;;;8.70;90.10;;;;;;6204217;28;20126;-80
2021/11/17 07:16:03;;;;;;;17.20;6.00;;;8.70;90.10;;;;;;6205810;28;20057;-82
2021/11/17 07:19:06;;;;;;;19.13;6.72;;;8.70;90.10;;;;;;6205931;28;20058;-81
2021/11/17 07:22:09;;;;;;;14.98;5.15;;;8.80;90.10;;;;;;6205457;28;20053;-81
2021/11/17 07:25:14;;;;;;;17.23;5.70;;;8.80;90.00;;;;;;6205880;28;20046;-82
2021/11/17 07:28:17;;;;;;;15.18;7.00;;;8.80;90.00;;;;;;6203037;28;20049;-80
2021/11/17 07:31:19;;;;;;;21.20;6.68;;;8.80;90.00;;;;;;6205894;28;20094;-81
2021/11/17 07:34:21;;;;;;;13.77;5.53;;;8.80;89.80;;;;;;6204001;28;20042;-78
2021/11/17 07:37:24;;;;;;;12.30;4.88;;;8.90;89.60;;;;;;6212104;28;20052;-82
2021/11/17 07:40:26;;;;;;;10.27;4.60;;;9.00;89.50;;;;;;6225628;28;20052;-82
2021/11/17 07:43:30;;;;;;;17.83;5.18;;;8.90;89.10;;;;;;6227978;28;20042;-80
2021/11/17 07:46:32;;;;;;;13.40;4.43;;;9.00;88.80;;;;;;6227675;28;20478;-79
2021/11/17 07:49:34;;;;;;;11.73;3.92;;;8.90;88.40;;;;;;6226101;28;20050;-81
2021/11/17 07:52:36;;;;;;;9.52;4.43;;;8.90;87.70;;;;;;6226331;28;20042;-82
2021/11/17 07:55:39;;;;;;;9.10;3.83;;;8.90;87.50;;;;;;6229149;28;20050;-80
2021/11/17 07:58:45;;;;;;;9.88;3.97;;;8.80;87.00;;;;;;6228478;28;20050;-79
2021/11/17 08:01:49;;;;;;;10.32;3.55;;;8.80;86.80;;;;;;6201047;28;20078;-79
2021/11/17 08:04:51;;;;;;;11.38;3.67;;;8.80;87.10;;;;;;6205905;28;20600;-79
2021/11/17 08:07:53;;;;;;;7.30;3.55;;;8.70;87.00;;;;;;6212649;28;20152;-80
2021/11/17 08:10:56;;;;;;;9.23;3.45;;;8.70;86.70;;;;;;6227881;28;20389;-79
2021/11/17 08:13:59;;;;;;;7.78;2.85;;;8.60;86.60;;;;;;6227485;28;20050;-80
2021/11/17 08:17:01;;;;;;;3.47;2.47;;;8.50;86.60;;;;;;6226470;28;20054;-80
2021/11/17 08:20:04;;;;;;;7.68;2.35;;;8.60;86.80;;;;;;6228019;28;20050;-81
2021/11/17 08:23:06;;;;;;;6.30;2.95;;;8.60;86.90;;;;;;6227672;28;20041;-78
2021/11/17 08:26:09;;;;;;;6.00;2.25;;;8.70;86.60;;;;;;6227770;28;20136;-79
2021/11/17 08:29:13;;;;;;;3.17;1.98;;;8.80;86.40;;;;;;6203486;28;20046;-81
2021/11/17 08:32:16;;;;;;;2.83;1.40;;;8.90;85.60;;;;;;6201965;28;20055;-78
2021/11/17 08:35:21;;;;;;;3.40;1.40;;;8.90;85.30;;;;;;6203843;28;20144;-79
2021/11/17 08:38:25;;;;;;;4.90;2.10;;;9.00;85.00;;;;;;6209312;28;20058;-79
2021/11/17 08:41:28;;;;;;;6.32;2.03;;;9.10;84.90;;;;;;6201964;28;20054;-79
2021/11/17 08:44:31;;;;;;;3.30;1.70;;;9.30;85.30;;;;;;6201972;28;20046;-81
2021/11/17 08:47:33;;;;;;;4.80;2.55;;;9.40;84.30;;;;;;6204919;28;20661;-78
2021/11/17 08:50:35;;;;;;;4.90;2.42;;;9.50;83.20;;;;;;6206223;28;20086;-80
2021/11/17 08:53:39;;;;;;;4.65;2.17;;;9.60;82.90;;;;;;6206774;28;20077;-80
2021/11/17 08:56:40;;;;;;;4.88;2.20;;;9.70;82.80;;;;;;6207499;28;20181;-79
2021/11/17 08:59:45;;;;;;;4.15;2.10;;;9.90;81.90;;;;;;6207555;28;20056;-79
2021/11/17 09:02:50;;;;;;;12.90;2.60;;;9.90;81.70;;;;;;6203011;28;20050;-81
2021/11/17 09:05:54;;;;;;;9.55;2.08;;;10.00;81.30;;;;;;6208078;28;20189;-79
2021/11/17 09:08:56;;;;;;;8.02;2.70;;;10.10;81.30;;;;;;6222476;28;20042;-79
2021/11/17 09:11:58;;;;;;;5.47;2.60;;;10.10;80.60;;;;;;6221908;28;20140;-80
2021/11/17 09:15:01;;;;;;;5.25;2.50;;;10.10;80.20;;;;;;6206654;28;20054;-80
2021/11/17 09:18:04;;;;;;;4.45;2.90;;;10.10;80.30;;;;;;6206567;28;20105;-78
2021/11/17 09:21:08;;;;;;;8.60;2.33;;;10.10;79.90;;;;;;6206172;28;20053;-80
2021/11/17 09:24:13;;;;;;;3.90;1.98;;;10.20;79.30;;;;;;6205824;28;20053;-80
2021/11/17 09:27:14;;;;;;;4.97;1.80;;;10.30;78.90;;;;;;6206461;28;20057;-80
2021/11/17 09:30:20;;;;;;;3.83;1.70;;;10.40;78.00;;;;;;6206204;28;20047;-79
2021/11/17 09:33:23;;;;;;;2.55;1.30;;;10.70;76.70;;;;;;6205586;28;20125;-79
2021/11/17 09:36:27;;;;;;;3.60;0.60;;;11.00;76.00;;;;;;6210750;28;20091;-77
2021/11/17 09:39:29;;;;;;;2.80;1.10;;;11.30;74.80;;;;;;6221847;28;20512;-80
2021/11/17 09:42:31;;;;;;;1.10;0.70;;;11.60;73.20;;;;;;6229631;28;20112;-79
2021/11/17 09:45:35;;;;;;;2.35;1.05;;;11.70;72.00;;;;;;6229564;28;20056;-78
2021/11/17 09:48:40;;;;;;;1.00;0.60;;;11.90;70.90;;;;;;6230545;28;20515;-79
2021/11/17 09:51:45;;;;;;;4.72;1.00;;;12.00;70.10;;;;;;6231175;28;20046;-80
2021/11/17 09:54:52;;;;;;;2.17;0.98;;;12.10;69.60;;;;;;6231127;28;20127;-79
2021/11/17 09:57:59;;;;;;;2.22;1.25;;;12.10;68.90;;;;;;6230597;28;20050;-79
2021/11/17 10:01:10;;;;;;;2.30;1.23;;;12.00;69.20;;;;;;6228313;28;20519;-78
2021/11/17 10:04:16;;;;;;;1.90;0.70;;;11.90;69.80;;;;;;6205224;28;20134;-78
2021/11/17 10:14:23;;;;;;;3.67;1.15;;;11.70;70.90;;;;;;6181797;28;20074;-79
2021/11/17 10:17:36;;;;;;;1.65;0.77;;;11.70;71.10;;;;;;6179181;28;20051;-79
2021/11/17 10:20:40;;;;;;;1.20;0.70;;;11.80;71.20;;;;;;6175120;28;20086;-79
2021/11/17 10:24:02;;;;;;;2.20;0.98;;;11.70;70.80;;;;;;6158852;29;20142;-78
2021/11/17 10:27:04;;;;;;;3.85;0.82;;;11.60;70.50;;;;;;6154410;28;20199;-79
2021/11/17 10:30:15;;;;;;;2.25;1.15;;;11.50;70.60;;;;;;6153367;28;20051;-78
2021/11/17 10:33:20;;;;;;;1.90;1.00;;;11.50;71.20;;;;;;6153489;28;20137;-78
2021/11/17 10:36:25;;;;;;;2.50;1.52;;;11.40;70.40;;;;;;6160457;28;20121;-81
2021/11/17 10:39:29;;;;;;;2.45;0.80;;;11.40;70.10;;;;;;6172152;28;20061;-79
2021/11/17 10:42:36;;;;;;;2.35;1.20;;;11.30;70.60;;;;;;6179831;28;20397;-78
2021/11/17 10:45:42;;;;;;;3.28;1.05;;;11.20;71.40;;;;;;6179826;28;20067;-79
2021/11/17 10:48:57;;;;;;;2.08;0.57;;;11.20;70.80;;;;;;6178766;28;20105;-78
2021/11/17 10:52:03;;;;;;;2.08;1.42;;;11.10;70.20;;;;;;6177542;28;20066;-78
2021/11/17 10:55:14;;;;;;;2.72;1.30;;;11.00;70.40;;;;;;6177763;28;20461;-81
2021/11/17 10:58:18;;;;;;;2.85;1.15;;;10.90;70.60;;;;;;6177647;28;20047;-79
2021/11/17 11:01:23;;;;;;;2.33;1.17;;;10.80;70.80;;;;;;6177361;28;20050;-76
2021/11/17 11:04:31;;;;;;;1.63;0.95;;;10.70;71.20;;;;;;6166337;28;20173;-78
2021/11/17 11:07:37;;;;;;;3.13;1.45;;;10.60;71.80;;;;;;6172583;28;20186;-79
2021/11/17 11:10:42;;;;;;;1.63;0.70;;;10.60;71.80;;;;;;6177456;28;20043;-80
2021/11/17 11:13:48;;;;;;;31.48;1.63;;;10.60;71.90;;;;;;6178284;28;20145;-80
2021/11/17 11:16:52;;;;;;;1.83;1.08;;;10.50;72.20;;;;;;6179890;28;20054;-81
2021/11/17 11:20:31;;;;;;;2.03;0.80;;;10.60;72.10;;;;;;6160799;28;20051;-81
2021/11/17 11:23:36;;;;;;;7.20;4.22;;;10.70;72.40;;;;;;6151031;28;20138;-80
2021/11/17 11:27:26;;;;;;;17.02;9.23;;;10.70;74.60;;;;;;6159038;28;20051;-80
2021/11/17 11:30:38;;;;;;;3.80;2.33;;;10.70;73.10;;;;;;6156810;28;20058;-81
2021/11/17 11:33:48;;;;;;;2.88;1.08;;;10.70;73.30;;;;;;6158394;28;20130;-78
2021/11/17 11:36:50;;;;;;;2.53;1.45;;;10.70;72.80;;;;;;6168175;28;20047;-78
2021/11/17 11:39:54;;;;;;;1.92;0.75;;;10.60;72.60;;;;;;6170536;28;20061;-79
2021/11/17 11:43:18;;;;;;;3.10;1.48;;;10.40;72.90;;;;;;6177837;28;20129;-80
2021/11/17 11:46:25;;;;;;;2.58;1.25;;;10.50;73.10;;;;;;6176604;28;20134;-78
2021/11/17 11:49:34;;;;;;;3.67;1.35;;;10.40;72.10;;;;;;6175742;28;20050;-82
2021/11/17 11:52:38;;;;;;;3.20;1.67;;;10.30;73.50;;;;;;6176562;28;20046;-79
2021/11/17 11:59:13;;;;;;;3.58;0.85;;;10.30;72.40;;;;;;6319178;27;20424;-79
2021/11/17 12:02:19;;;;;;;2.40;1.30;;;10.40;72.70;;;;;;6302364;28;20059;-79
2021/11/17 12:05:32;;;;;;;1.73;1.05;;;10.40;72.50;;;;;;6294644;28;20053;-78
2021/11/17 12:08:44;;;;;;;1.45;0.88;;;10.40;72.60;;;;;;6273903;28;20188;-79
2021/11/17 12:11:53;;;;;;;4.97;1.40;;;10.30;72.30;;;;;;6272508;28;20434;-78
2021/11/17 12:15:20;;;;;;;4.30;1.55;;;10.30;72.50;;;;;;6272826;28;20049;-81
2021/11/17 12:18:23;;;;;;;2.35;1.30;;;10.40;72.50;;;;;;6271125;28;20037;-78
2021/11/17 12:21:28;;;;;;;4.88;1.70;;;10.40;71.80;;;;;;6272677;28;20140;-79
2021/11/17 12:24:32;;;;;;;3.25;1.88;;;10.40;71.80;;;;;;6270581;28;20077;-79
2021/11/17 12:27:36;;;;;;;4.30;2.10;;;10.40;71.80;;;;;;6270804;28;20048;-77
2021/11/17 12:30:43;;;;;;;2.85;1.38;;;10.50;71.90;;;;;;6272315;28;20138;-80
2021/11/17 12:33:49;;;;;;;8.10;3.50;;;10.60;71.90;;;;;;6272905;28;20419;-79
2021/11/17 12:36:57;;;;;;;3.15;1.80;;;10.80;71.50;;;;;;6258972;28;20109;-80
2021/11/17 12:40:01;;;;;;;2.45;1.15;;;10.80;71.10;;;;;;6272444;28;20053;-80
2021/11/17 12:43:06;;;;;;;2.50;1.08;;;10.80;70.10;;;;;;6272798;28;20049;-79
2021/11/17 12:46:13;;;;;;;8.10;3.95;;;10.70;70.60;;;;;;6271298;28;20049;-82
2021/11/17 12:49:21;;;;;;;7.45;4.38;;;10.80;71.30;;;;;;6271833;28;20694;-79
2021/11/17 12:52:30;;;;;;;2.13;1.25;;;10.90;70.80;;;;;;6271110;28;20049;-80
2021/11/17 12:55:40;;;;;;;2.83;1.55;;;10.80;70.30;;;;;;6271033;28;20056;-79
2021/11/17 12:58:46;;;;;;;6.22;1.27;;;10.60;71.00;;;;;;6270250;28;20041;-82
2021/11/17 13:01:52;;;;;;;3.55;1.50;;;10.60;71.20;;;;;;6271433;28;20060;-81
2021/11/17 13:04:56;;;;;;;17.95;7.60;;;10.70;71.30;;;;;;6271548;28;20049;-80
2021/11/17 13:08:01;;;;;;;34.20;15.98;;;11.00;71.60;;;;;;6269168;28;20129;-82
2021/11/17 13:11:13;;;;;;;3.67;1.90;;;11.40;70.50;;;;;;6255945;28;20052;-80
2021/11/17 13:14:17;;;;;;;5.65;2.25;;;11.60;68.30;;;;;;6255558;28;20049;-81
2021/11/17 13:17:23;;;;;;;7.85;4.30;;;11.80;67.70;;;;;;6263213;28;20109;-79
2021/11/17 13:20:36;;;;;;;2.95;1.30;;;11.80;66.80;;;;;;6278468;28;20077;-80
2021/11/17 13:23:43;;;;;;;5.43;3.65;;;11.80;66.10;;;;;;6278186;28;20053;-76
2021/11/17 13:26:48;;;;;;;17.27;8.45;;;11.80;66.50;;;;;;6253021;28;20042;-79
2021/11/17 13:29:56;;;;;;;2.65;2.03;;;11.70;66.70;;;;;;6252126;28;20057;-79
2021/11/17 13:33:20;;;;;;;3.07;1.87;;;11.70;67.00;;;;;;6253607;28;20045;-80
2021/11/17 13:36:48;;;;;;;4.53;1.98;;;11.70;66.70;;;;;;6260058;28;20045;-79
2021/11/17 13:39:54;;;;;;;3.15;2.13;;;11.60;66.90;;;;;;6268290;28;20108;-78
2021/11/17 13:42:57;;;;;;;3.80;2.30;;;11.50;67.70;;;;;;6273797;28;20045;-80
2021/11/17 13:46:05;;;;;;;6.68;4.13;;;11.40;68.00;;;;;;6272590;28;20049;-79
2021/11/17 13:49:08;;;;;;;7.03;4.75;;;11.40;68.60;;;;;;6264408;28;20065;-79
2021/11/17 13:52:12;;;;;;;12.10;5.03;;;11.40;68.80;;;;;;6258285;28;20801;-78
2021/11/17 13:55:17;;;;;;;9.15;4.82;;;11.30;69.00;;;;;;6254961;28;20059;-77
2021/11/17 13:58:19;;;;;;;9.50;5.38;;;11.20;69.30;;;;;;6252531;28;20407;-79
2021/11/17 14:01:21;;;;;;;10.40;6.80;;;11.10;69.60;;;;;;6252963;28;20522;-79
2021/11/17 14:04:26;;;;;;;6.28;3.58;;;11.20;69.50;;;;;;6253716;28;20499;-79
2021/11/17 14:07:31;;;;;;;4.93;3.15;;;11.20;69.40;;;;;;6249375;28;20150;-79
2021/11/17 14:10:33;;;;;;;16.77;9.27;;;11.00;69.60;;;;;;6253546;28;20128;-79
2021/11/17 14:13:37;;;;;;;4.15;2.70;;;10.90;70.50;;;;;;6254220;28;20531;-78
2021/11/17 14:16:39;;;;;;;12.75;6.82;;;10.90;70.50;;;;;;6253794;28;20046;-79
2021/11/17 14:19:42;;;;;;;25.25;10.88;;;10.90;70.80;;;;;;6253054;28;20128;-77
2021/11/17 14:22:44;;;;;;;26.27;12.88;;;11.00;70.20;;;;;;6251530;28;20095;-78
2021/11/17 14:25:47;;;;;;;29.17;13.30;;;11.10;70.10;;;;;;6252530;28;20057;-78
2021/11/17 14:28:52;;;;;;;13.35;7.22;;;11.30;70.10;;;;;;6252533;28;20045;-78
2021/11/17 14:31:56;;;;;;;6.00;3.78;;;11.40;70.80;;;;;;6252456;28;20049;-77
2021/11/17 14:35:00;;;;;;;6.05;2.83;;;11.50;69.80;;;;;;6252969;28;20053;-78
2021/11/17 14:38:02;;;;;;;7.38;2.75;;;11.50;69.80;;;;;;6251883;28;20454;-79
2021/11/17 14:41:05;;;;;;;3.33;1.63;;;11.50;69.90;;;;;;6251763;28;20052;-78
2021/11/17 14:44:07;;;;;;;56.83;27.23;;;11.40;69.90;;;;;;6251922;28;20380;-77
2021/11/17 14:47:09;;;;;;;53.03;26.17;;;11.40;70.00;;;;;;6252893;28;20051;-79
2021/11/17 14:50:13;;;;;;;12.45;7.50;;;11.40;70.10;;;;;;6252246;28;20161;-78
2021/11/17 14:53:16;;;;;;;11.35;7.00;;;11.40;70.20;;;;;;6254698;28;20048;-78
2021/11/17 14:56:20;;;;;;;6.00;2.20;;;11.20;70.40;;;;;;6253587;28;20064;-78
2021/11/17 14:59:21;;;;;;;9.57;4.90;;;11.10;70.90;;;;;;6253749;28;20518;-78
2021/11/17 15:02:23;;;;;;;4.47;2.58;;;11.00;71.30;;;;;;6254686;28;20124;-78
2021/11/17 15:05:27;;;;;;;3.38;1.80;;;10.80;71.00;;;;;;6253778;28;20052;-79
2021/11/17 15:08:29;;;;;;;23.63;13.15;;;10.70;71.40;;;;;;6245153;28;20527;-77
2021/11/17 15:11:42;;;;;;;11.35;6.55;;;10.70;71.60;;;;;;6252024;28;20056;-79
2021/11/17 15:14:46;;;;;;;17.70;7.90;;;10.70;71.80;;;;;;6252022;28;20076;-80
2021/11/17 15:17:48;;;;;;;11.35;5.57;;;10.60;71.90;;;;;;6252920;28;20223;-81
2021/11/17 15:20:52;;;;;;;14.40;9.93;;;10.60;72.00;;;;;;6252406;28;20049;-82
2021/11/17 15:23:54;;;;;;;6.88;3.65;;;10.50;72.10;;;;;;6252643;28;20045;-82
2021/11/17 15:26:59;;;;;;;4.03;2.33;;;10.40;72.50;;;;;;6253784;28;20076;-78
2021/11/17 15:30:02;;;;;;;7.03;2.65;;;10.40;73.00;;;;;;6252165;28;20706;-81
2021/11/17 15:33:04;;;;;;;4.30;2.30;;;10.30;73.40;;;;;;6229413;28;20049;-80
2021/11/17 15:36:08;;;;;;;5.07;2.92;;;10.30;73.50;;;;;;6230682;28;20467;-83
2021/11/17 15:39:11;;;;;;;29.00;10.60;;;10.20;73.60;;;;;;6237177;28;20054;-82
2021/11/17 15:42:13;;;;;;;9.10;4.35;;;10.20;73.60;;;;;;6256338;28;20049;-82
2021/11/17 15:45:15;;;;;;;10.77;5.57;;;10.20;73.80;;;;;;6252181;28;20101;-82
2021/11/17 15:48:17;;;;;;;10.98;7.22;;;10.10;74.20;;;;;;6252028;28;20056;-82
2021/11/17 15:51:26;;;;;;;8.10;3.95;;;10.20;74.30;;;;;;6251113;28;20056;-82
2021/11/17 15:54:29;;;;;;;7.63;3.17;;;10.10;74.30;;;;;;6251243;28;20045;-81
2021/11/17 15:57:31;;;;;;;24.92;14.30;;;10.10;74.40;;;;;;6250734;28;20128;-79
2021/11/17 16:00:34;;;;;;;7.05;4.03;;;10.10;74.50;;;;;;6252492;28;20085;-82
2021/11/17 16:03:36;;;;;;;4.32;2.10;;;10.10;74.50;;;;;;6252047;28;20049;-81
2021/11/17 16:06:55;;;;;;;6.82;1.80;;;10.10;74.70;;;;;;6251731;28;20051;-82
2021/11/17 16:09:57;;;;;;;3.60;1.77;;;10.10;74.70;;;;;;6249212;28;20049;-80
2021/11/17 16:12:59;;;;;;;5.05;2.22;;;9.90;74.60;;;;;;6252547;28;20145;-82
2021/11/17 16:16:01;;;;;;;4.30;2.40;;;10.00;74.80;;;;;;6251639;28;20135;-80
2021/11/17 16:19:03;;;;;;;8.32;5.88;;;10.00;74.90;;;;;;6251735;28;20160;-81
2021/11/17 16:22:11;;;;;;;6.43;2.05;;;9.90;75.10;;;;;;6251030;28;20584;-81
2021/11/17 16:28:37;;;;;;;4.70;2.03;;;9.90;75.40;;;;;;6250611;28;19967;-81
2021/11/17 16:31:41;;;;;;;8.57;2.28;;;9.90;75.20;;;;;;6249781;28;20057;-81
2021/11/17 16:34:43;;;;;;;7.55;3.50;;;9.90;76.00;;;;;;6249485;28;20045;-79
2021/11/17 16:37:47;;;;;;;5.05;3.53;;;9.90;75.50;;;;;;6250574;28;20049;-79
2021/11/17 16:40:51;;;;;;;6.55;2.30;;;9.80;75.50;;;;;;6252640;28;20406;-79
2021/11/17 16:43:54;;;;;;;4.18;2.20;;;9.80;75.80;;;;;;6255944;28;20143;-81
2021/11/17 16:46:56;;;;;;;4.15;1.95;;;9.80;75.90;;;;;;6256874;28;20056;-80
2021/11/17 16:49:58;;;;;;;4.30;1.90;;;9.80;75.90;;;;;;6257068;28;20105;-80
2021/11/17 16:53:02;;;;;;;3.30;1.63;;;9.80;75.90;;;;;;6257492;28;20051;-80
2021/11/17 16:56:05;;;;;;;3.80;1.80;;;9.80;76.00;;;;;;6257631;28;20172;-81
2021/11/17 16:59:08;;;;;;;4.55;2.28;;;9.80;75.90;;;;;;6256970;28;20127;-80
2021/11/17 17:02:10;;;;;;;4.20;2.15;;;9.80;75.80;;;;;;6256091;28;20069;-81
2021/11/17 17:05:13;;;;;;;9.50;2.40;;;9.70;75.60;;;;;;6255996;28;20095;-81
2021/11/17 17:08:16;;;;;;;6.25;2.08;;;9.70;75.70;;;;;;6254451;28;20041;-79
2021/11/17 17:11:18;;;;;;;3.35;2.00;;;9.80;76.00;;;;;;6234097;28;20519;-79
2021/11/17 17:14:20;;;;;;;3.55;2.10;;;9.70;76.00;;;;;;6232059;28;20091;-80
2021/11/17 17:17:23;;;;;;;5.50;3.22;;;9.70;76.00;;;;;;6230459;28;20052;-78
2021/11/17 17:20:28;;;;;;;4.00;1.60;;;9.70;76.10;;;;;;6232912;28;20058;-81
2021/11/17 17:23:33;;;;;;;4.10;2.20;;;9.70;76.20;;;;;;6232584;28;20631;-82
2021/11/17 17:26:35;;;;;;;4.07;2.45;;;9.60;76.30;;;;;;6231580;28;20045;-80
2021/11/17 17:29:36;;;;;;;5.32;2.70;;;9.70;76.60;;;;;;6231711;28;20050;-81
2021/11/17 17:32:38;;;;;;;3.97;1.92;;;9.70;76.90;;;;;;6231463;28;20131;-80
2021/11/17 17:35:40;;;;;;;2.92;1.52;;;9.80;77.10;;;;;;6231928;28;20196;-80
2021/11/17 17:38:44;;;;;;;6.78;2.30;;;9.70;77.00;;;;;;6252199;28;20538;-80
2021/11/17 17:41:47;;;;;;;4.18;1.92;;;9.60;77.20;;;;;;6255856;28;20103;-80
2021/11/17 17:44:49;;;;;;;5.15;3.10;;;9.60;77.50;;;;;;6257644;28;20140;-82
2021/11/17 17:47:52;;;;;;;3.78;2.08;;;9.50;77.60;;;;;;6257506;28;20455;-81
2021/11/17 17:50:56;;;;;;;2.83;1.90;;;9.60;78.10;;;;;;6255436;28;20048;-81
2021/11/17 17:54:00;;;;;;;3.50;1.88;;;9.50;78.70;;;;;;6255903;28;20415;-82
2021/11/17 17:57:04;;;;;;;3.72;1.52;;;9.50;78.90;;;;;;6257203;28;20053;-82
2021/11/17 18:00:09;;;;;;;3.88;1.73;;;9.40;79.30;;;;;;6255736;28;20526;-82
2021/11/17 18:03:13;;;;;;;4.13;1.95;;;9.40;79.20;;;;;;6253473;28;20052;-80
2021/11/17 18:06:17;;;;;;;9.80;5.13;;;9.40;79.40;;;;;;6252898;28;20041;-80
2021/11/17 18:09:20;;;;;;;3.15;1.55;;;9.30;79.10;;;;;;6256949;28;20045;-81
2021/11/17 18:12:22;;;;;;;3.15;1.73;;;9.50;79.00;;;;;;6251912;28;20105;-83
2021/11/17 18:15:25;;;;;;;4.35;2.38;;;9.40;78.90;;;;;;6252347;28;20179;-82
2021/11/17 18:18:29;;;;;;;4.80;2.00;;;9.50;81.00;;;;;;6251119;28;20431;-81
2021/11/17 18:21:31;;;;;;;4.07;2.38;;;9.70;81.80;;;;;;6251388;28;20045;-82
2021/11/17 18:24:35;;;;;;;6.78;3.90;;;9.80;80.10;;;;;;6251364;28;20049;-82
2021/11/17 18:27:37;;;;;;;2.97;1.52;;;10.00;80.30;;;;;;6251742;28;20164;-82
2021/11/17 18:30:40;;;;;;;2.92;1.73;;;10.00;78.70;;;;;;6289539;22;20116;-85
2021/11/17 18:33:42;;;;;;;4.28;1.98;;;10.00;77.60;;;;;;6284217;28;20055;-82
2021/11/17 18:36:48;;;;;;;3.45;1.67;;;10.00;77.30;;;;;;6284253;28;20052;-83
2021/11/17 18:39:51;;;;;;;5.18;2.15;;;10.00;77.70;;;;;;6284290;28;20053;-85
2021/11/17 18:42:55;;;;;;;52.58;34.97;;;10.00;77.20;;;;;;6309931;28;20048;-82
2021/11/17 18:45:58;;;;;;;3.70;2.00;;;9.90;76.30;;;;;;6308494;28;20048;-84
2021/11/17 18:49:01;;;;;;;5.65;1.60;;;9.90;76.30;;;;;;6309303;28;20060;-84
2021/11/17 18:52:03;;;;;;;4.88;1.70;;;9.80;76.10;;;;;;6312138;28;20056;-83
2021/11/17 18:55:08;;;;;;;5.35;1.98;;;9.80;76.30;;;;;;6315490;28;20180;-84
2021/11/17 18:58:10;;;;;;;2.22;1.55;;;9.80;76.40;;;;;;6314084;28;20048;-84
2021/11/17 19:01:16;;;;;;;5.35;2.90;;;9.80;76.20;;;;;;6315544;28;20522;-84